Time;durP1;ratioP1;P1;durP2;ratioP2;P2;SDS_P1;SDS_P2;PMS_P1;PMS_P2;Temp;Humidity;BMP_temperature;BMP_pressure;BME280_temperature;BME280_humidity;BME280_pressure;Samples;Min_cycle;Max_cycle;Signal;HPM_P1;HPM_P2
2023/07/02 00:00:06;;;;;;;9.20;8.30;;;;;;;22.26;70.75;96322.88;5086305;28;20239;-75
2023/07/02 00:03:26;;;;;;;9.87;8.00;;;;;;;21.98;71.98;96310.06;5086960;28;20197;-76
2023/07/02 00:06:48;;;;;;;10.07;8.20;;;;;;;22.00;71.87;96303.66;5087379;28;20190;-75
2023/07/02 00:10:10;;;;;;;9.50;8.10;;;;;;;22.29;70.59;96301.47;5084514;28;20243;-76
2023/07/02 00:13:31;;;;;;;9.30;7.50;;;;;;;22.35;70.78;96294.72;5087767;28;20191;-74
2023/07/02 00:16:52;;;;;;;9.57;7.27;;;;;;;22.52;69.38;96293.78;5087148;28;20188;-74
2023/07/02 00:20:27;;;;;;;9.87;8.13;;;;;;;22.35;68.81;96290.28;5085470;28;20194;-76
2023/07/02 00:23:48;;;;;;;8.53;7.73;;;;;;;22.27;69.79;96279.72;5087029;28;20186;-74
2023/07/02 00:27:09;;;;;;;8.80;7.57;;;;;;;22.36;69.11;96278.72;5085687;28;20192;-73
2023/07/02 00:30:31;;;;;;;9.40;7.80;;;;;;;22.35;69.47;96285.00;5086048;28;20613;-74
2023/07/02 00:33:52;;;;;;;8.63;7.73;;;;;;;22.42;69.69;96283.34;5084871;28;20195;-75
2023/07/02 00:37:15;;;;;;;9.80;7.60;;;;;;;22.55;69.21;96282.91;5085280;28;20192;-76
2023/07/02 00:40:37;;;;;;;8.93;7.93;;;;;;;22.33;68.88;96247.41;5086254;28;20199;-77
2023/07/02 00:43:58;;;;;;;10.23;6.93;;;;;;;22.65;68.46;96283.59;5085722;28;20186;-75
2023/07/02 00:47:19;;;;;;;9.03;7.80;;;;;;;22.48;69.17;96292.47;5085655;28;20270;-80
2023/07/02 00:50:40;;;;;;;9.63;8.63;;;;;;;22.42;69.75;96287.84;5067904;28;20318;-74
2023/07/02 00:54:01;;;;;;;9.10;8.07;;;;;;;22.45;69.62;96293.59;5084561;28;20203;-74
2023/07/02 00:57:22;;;;;;;9.20;7.40;;;;;;;21.65;72.32;96296.72;5087089;28;20697;-75
2023/07/02 01:00:43;;;;;;;8.17;7.23;;;;;;;21.30;73.40;96295.97;5068713;28;20196;-74
2023/07/02 01:04:12;;;;;;;9.30;7.63;;;;;;;21.72;72.23;96294.28;5086260;28;20190;-75
2023/07/02 01:07:33;;;;;;;7.87;7.07;;;;;;;21.86;71.57;96283.97;5083220;28;20224;-74
2023/07/02 01:10:54;;;;;;;8.97;6.97;;;;;;;21.86;71.40;96285.81;5086285;28;20662;-79
2023/07/02 01:14:14;;;;;;;10.10;8.10;;;;;;;21.62;72.29;96277.72;5087430;28;20192;-76
2023/07/02 01:17:39;;;;;;;9.00;7.80;;;;;;;21.12;73.25;96274.13;5086440;28;20186;-73
2023/07/02 01:21:01;;;;;;;9.77;8.30;;;;;;;21.22;72.99;96280.94;5084295;28;20186;-76
2023/07/02 01:24:22;;;;;;;10.47;8.57;;;;;;;21.40;72.50;96289.63;5090526;28;20193;-73
2023/07/02 01:27:43;;;;;;;9.70;7.63;;;;;;;21.44;72.01;96284.88;5090785;28;20192;-74
2023/07/02 01:31:03;;;;;;;9.17;8.23;;;;;;;21.69;70.84;96289.31;5090752;28;20330;-75
2023/07/02 01:34:24;;;;;;;9.40;8.10;;;;;;;21.41;72.52;96290.47;5090444;28;20200;-80
2023/07/02 01:37:48;;;;;;;8.73;7.90;;;;;;;21.55;72.00;96281.97;5088515;28;20295;-76
2023/07/02 01:41:09;;;;;;;8.70;7.80;;;;;;;21.63;72.02;96293.41;5090243;28;20236;-74
2023/07/02 01:44:30;;;;;;;9.20;8.17;;;;;;;21.50;72.25;96294.78;5088595;28;20193;-75
2023/07/02 01:47:50;;;;;;;10.63;7.93;;;;;;;21.56;72.03;96291.53;5089020;28;20190;-74
2023/07/02 01:51:11;;;;;;;10.87;8.33;;;;;;;21.47;72.55;96290.66;5089461;28;20674;-73
2023/07/02 01:54:32;;;;;;;10.40;8.23;;;;;;;21.03;74.44;96304.81;5088771;28;20192;-74
2023/07/02 01:57:52;;;;;;;9.00;7.83;;;;;;;21.13;74.33;96294.19;5089275;28;20217;-81
2023/07/02 02:01:13;;;;;;;13.47;8.63;;;;;;;21.30;74.22;96288.06;5088916;28;20189;-73
2023/07/02 02:04:34;;;;;;;9.07;8.17;;;;;;;21.38;73.56;96272.31;5086629;28;20241;-73
2023/07/02 02:07:54;;;;;;;9.47;8.47;;;;;;;21.44;73.61;96284.88;5087174;28;20570;-75
2023/07/02 02:11:17;;;;;;;9.23;8.20;;;;;;;21.50;72.99;96277.16;5097186;28;20232;-73
2023/07/02 02:14:38;;;;;;;9.03;8.13;;;;;;;21.50;72.98;96276.34;5088243;28;20572;-75
2023/07/02 02:17:58;;;;;;;11.27;8.63;;;;;;;21.33;73.63;96271.97;5087668;28;20699;-72
2023/07/02 02:21:39;;;;;;;10.57;8.00;;;;;;;21.32;73.74;96271.13;5076462;28;20203;-76
2023/07/02 02:25:00;;;;;;;10.67;9.30;;;;;;;21.21;73.68;96252.94;5089599;28;20235;-77
2023/07/02 02:28:21;;;;;;;8.47;7.57;;;;;;;21.15;74.44;96263.25;5089802;28;20246;-79
2023/07/02 02:31:46;;;;;;;8.67;7.87;;;;;;;21.35;73.81;96280.53;5089946;28;20234;-80
2023/07/02 02:35:08;;;;;;;11.70;7.80;;;;;;;21.50;73.17;96273.69;5086900;28;20665;-80
2023/07/02 02:38:30;;;;;;;11.00;7.97;;;;;;;21.26;73.66;96263.00;5072565;28;20193;-77
2023/07/02 02:41:51;;;;;;;12.40;8.40;;;;;;;20.62;76.12;96265.91;5070289;28;20189;-78
2023/07/02 02:45:12;;;;;;;8.40;7.60;;;;;;;20.82;75.64;96267.41;5070675;28;20315;-82
2023/07/02 02:48:34;;;;;;;12.50;8.80;;;;;;;20.09;77.70;96223.78;5103448;28;20193;-80
2023/07/02 02:51:55;;;;;;;9.83;8.83;;;;;;;20.78;76.41;96277.41;5088648;28;20193;-80
2023/07/02 02:55:17;;;;;;;13.17;8.87;;;;;;;20.98;75.43;96278.91;5086690;28;20180;-81
2023/07/02 02:58:38;;;;;;;11.67;8.80;;;;;;;20.19;78.06;96263.97;5095634;28;20700;-74
2023/07/02 03:01:58;;;;;;;11.03;9.93;;;;;;;20.38;77.38;96284.09;5074428;28;20617;-78
2023/07/02 03:05:19;;;;;;;10.87;9.50;;;;;;;20.74;76.43;96272.59;5096208;28;20196;-76
2023/07/02 03:08:40;;;;;;;10.13;9.00;;;;;;;20.84;75.89;96287.34;5100027;28;20224;-75
2023/07/02 03:12:01;;;;;;;9.27;8.27;;;;;;;21.18;75.03;96295.41;5101064;28;20197;-74
2023/07/02 03:15:21;;;;;;;11.00;9.50;;;;;;;21.21;74.95;96296.88;5090023;28;20189;-77
2023/07/02 03:18:42;;;;;;;10.93;9.30;;;;;;;21.03;75.79;96295.13;5069950;28;20216;-78
2023/07/02 03:22:03;;;;;;;11.03;9.03;;;;;;;20.66;76.52;96294.41;5087984;28;20187;-74
2023/07/02 03:25:23;;;;;;;10.70;7.73;;;;;;;20.98;75.33;96304.41;5086842;28;20204;-73
2023/07/02 03:28:44;;;;;;;9.83;8.47;;;;;;;21.06;74.12;96318.50;5088496;28;20187;-79
2023/07/02 03:32:06;;;;;;;10.50;7.80;;;;;;;21.17;73.20;96321.88;5088000;28;20222;-75
2023/07/02 03:35:27;;;;;;;8.90;8.00;;;;;;;21.22;71.39;96319.63;5086228;28;20217;-76
2023/07/02 03:38:49;;;;;;;11.57;8.27;;;;;;;21.18;71.85;96316.47;5087761;28;20188;-76
2023/07/02 03:42:10;;;;;;;12.37;8.30;;;;;;;21.14;72.03;96319.56;5087871;28;20201;-75
2023/07/02 03:45:31;;;;;;;9.73;8.07;;;;;;;21.20;71.86;96332.94;5088204;28;20197;-74
2023/07/02 03:48:52;;;;;;;9.03;8.03;;;;;;;21.38;71.14;96332.91;5102042;28;20189;-74
2023/07/02 03:52:12;;;;;;;14.17;9.33;;;;;;;21.70;69.98;96343.69;5087341;28;20194;-74
2023/07/02 03:55:33;;;;;;;8.67;7.83;;;;;;;21.36;70.64;96337.50;5089457;28;20186;-74
2023/07/02 03:58:54;;;;;;;9.27;8.37;;;;;;;20.95;72.82;96321.34;5089676;28;20196;-76
2023/07/02 04:02:15;;;;;;;9.27;8.03;;;;;;;21.04;73.30;96325.72;5090222;28;20187;-75
2023/07/02 04:05:36;;;;;;;11.13;9.10;;;;;;;21.00;74.78;96332.22;5104032;28;20703;-75
2023/07/02 04:08:56;;;;;;;11.37;9.40;;;;;;;21.17;73.79;96335.88;5095195;28;20878;-74
2023/07/02 04:12:17;;;;;;;11.47;9.30;;;;;;;21.27;73.43;96341.06;5085666;28;20185;-74
2023/07/02 04:15:38;;;;;;;10.97;9.10;;;;;;;21.34;74.00;96342.94;5087778;28;20300;-74
2023/07/02 04:18:59;;;;;;;9.53;8.53;;;;;;;21.45;73.35;96345.31;5105430;28;20196;-75
2023/07/02 04:22:19;;;;;;;10.83;9.07;;;;;;;21.06;74.81;96347.47;5106421;28;20215;-75
2023/07/02 04:25:40;;;;;;;10.47;9.37;;;;;;;20.83;75.96;96343.63;5107293;28;20192;-74
2023/07/02 04:29:01;;;;;;;10.83;9.27;;;;;;;20.83;76.40;96348.88;5108001;28;20180;-76
2023/07/02 04:32:22;;;;;;;12.83;9.73;;;;;;;21.34;74.51;96342.09;5105699;28;20682;-75
2023/07/02 04:35:43;;;;;;;9.77;8.63;;;;;;;22.33;70.83;96352.09;5105340;28;20191;-75
2023/07/02 04:39:04;;;;;;;11.53;9.87;;;;;;;22.98;68.71;96350.53;5106820;28;20206;-75
2023/07/02 04:42:27;;;;;;;12.00;9.23;;;;;;;23.71;66.60;96359.28;5102239;28;20203;-75
2023/07/02 04:45:48;;;;;;;11.77;9.63;;;;;;;24.03;65.06;96372.44;5097385;28;20282;-76
2023/07/02 04:49:09;;;;;;;10.23;9.23;;;;;;;24.42;64.46;96373.34;5096168;28;20318;-78
2023/07/02 04:52:36;;;;;;;10.80;9.37;;;;;;;24.99;63.37;96368.63;5097923;28;20214;-78
2023/07/02 04:55:57;;;;;;;11.73;10.33;;;;;;;25.29;61.83;96377.53;5106542;28;20189;-75
2023/07/02 04:59:18;;;;;;;10.47;9.37;;;;;;;25.14;61.82;96376.66;5105753;28;20273;-77
2023/07/02 05:02:40;;;;;;;10.77;9.10;;;;;;;25.10;61.85;96365.56;5105401;28;20596;-75
2023/07/02 05:06:01;;;;;;;11.63;9.80;;;;;;;24.46;63.67;96363.25;5106626;28;20221;-75
2023/07/02 05:09:22;;;;;;;9.83;8.83;;;;;;;24.33;63.19;96373.56;5104152;28;20229;-74
2023/07/02 05:12:42;;;;;;;11.97;9.03;;;;;;;24.19;64.11;96360.03;5106341;28;20194;-76
2023/07/02 05:16:03;;;;;;;19.13;9.80;;;;;;;23.96;64.53;96359.09;5107261;28;20213;-77
2023/07/02 05:19:24;;;;;;;15.43;9.80;;;;;;;24.17;63.88;96375.25;5096636;28;20274;-78
2023/07/02 05:22:44;;;;;;;14.33;10.77;;;;;;;24.20;64.99;96374.94;5094169;28;20201;-76
2023/07/02 05:26:05;;;;;;;13.97;9.87;;;;;;;23.81;66.07;96376.63;5083664;28;20194;-78
2023/07/02 05:29:26;;;;;;;11.53;10.37;;;;;;;24.00;66.32;96365.69;5088022;28;20724;-81
2023/07/02 05:32:47;;;;;;;11.50;10.40;;;;;;;23.76;68.14;96364.91;5087457;28;20189;-75
2023/07/02 05:36:08;;;;;;;13.43;9.83;;;;;;;23.53;69.21;96363.94;5068266;28;20194;-78
2023/07/02 05:39:30;;;;;;;11.37;10.20;;;;;;;23.60;68.70;96364.91;5083716;28;20706;-81
2023/07/02 05:42:51;;;;;;;10.50;9.40;;;;;;;23.58;69.56;96354.50;5085509;28;20671;-81
2023/07/02 05:46:13;;;;;;;10.83;9.33;;;;;;;23.46;69.69;96353.19;5084780;28;20687;-79
2023/07/02 05:49:34;;;;;;;11.93;9.30;;;;;;;23.49;69.11;96362.63;5086129;28;20716;-78
2023/07/02 05:52:55;;;;;;;12.20;10.13;;;;;;;23.34;70.06;96365.09;5085569;28;20564;-79
2023/07/02 05:56:16;;;;;;;14.67;10.37;;;;;;;23.55;69.85;96365.44;5086529;28;20193;-79
2023/07/02 05:59:37;;;;;;;11.67;10.17;;;;;;;23.57;70.82;96365.25;5101188;28;20766;-77
2023/07/02 06:02:58;;;;;;;10.77;9.63;;;;;;;23.43;70.62;96370.22;5086487;28;20229;-81
2023/07/02 06:06:19;;;;;;;10.83;9.50;;;;;;;23.49;69.70;96381.97;5085810;28;20589;-80
2023/07/02 06:09:39;;;;;;;9.37;8.10;;;;;;;23.49;67.74;96395.19;5087982;28;20738;-81
2023/07/02 06:13:00;;;;;;;12.20;9.80;;;;;;;23.41;67.67;96379.31;5090673;28;20329;-81
2023/07/02 06:16:21;;;;;;;10.10;8.87;;;;;;;23.39;68.96;96381.28;5089528;28;20191;-74
2023/07/02 06:19:41;;;;;;;9.73;8.40;;;;;;;23.30;69.83;96388.38;5090010;28;20284;-78
2023/07/02 06:23:02;;;;;;;9.20;8.03;;;;;;;23.26;69.59;96397.59;5088922;28;20204;-81
2023/07/02 06:26:23;;;;;;;9.40;8.27;;;;;;;23.11;69.92;96393.13;5089862;28;20765;-80
2023/07/02 06:29:44;;;;;;;8.20;7.40;;;;;;;23.00;67.83;96419.84;5089647;28;20719;-81
2023/07/02 06:33:04;;;;;;;9.30;7.97;;;;;;;23.01;66.74;96417.03;5089425;28;20188;-74
2023/07/02 06:36:25;;;;;;;8.70;7.90;;;;;;;22.93;67.41;96403.81;5086682;28;20197;-75
2023/07/02 06:39:46;;;;;;;8.57;7.63;;;;;;;23.03;67.13;96401.03;5088386;28;20276;-74
2023/07/02 06:43:10;;;;;;;8.63;7.67;;;;;;;23.15;66.75;96410.28;5087706;28;20723;-81
2023/07/02 06:46:30;;;;;;;8.20;7.20;;;;;;;23.06;65.14;96388.31;5089158;28;20598;-74
2023/07/02 06:49:51;;;;;;;8.20;7.00;;;;;;;23.00;66.32;96388.16;5088597;28;20227;-75
2023/07/02 06:53:13;;;;;;;8.97;8.17;;;;;;;22.71;68.49;96398.31;5088930;28;20200;-79
2023/07/02 06:56:34;;;;;;;10.80;9.10;;;;;;;22.73;70.76;96417.47;5088772;28;20265;-80
2023/07/02 06:59:59;;;;;;;17.60;10.83;;;;;;;22.98;73.26;96421.84;5090316;28;20187;-78
2023/07/02 07:03:20;;;;;;;13.23;11.93;;;;;;;23.00;75.90;96419.84;5090897;28;20186;-75
2023/07/02 07:06:41;;;;;;;14.00;11.93;;;;;;;23.13;75.51;96414.91;5090284;28;20582;-75
2023/07/02 07:10:03;;;;;;;16.00;12.23;;;;;;;23.40;75.04;96420.78;5086464;28;20301;-76
2023/07/02 07:13:24;;;;;;;13.70;12.40;;;;;;;23.71;72.12;96420.94;5088352;28;20198;-73
2023/07/02 07:16:45;;;;;;;14.30;12.77;;;;;;;23.93;69.49;96417.63;5088870;28;20212;-73
2023/07/02 07:20:06;;;;;;;16.03;12.77;;;;;;;23.78;68.08;96410.53;5087348;28;20196;-72
2023/07/02 07:23:28;;;;;;;13.97;11.67;;;;;;;23.66;68.49;96411.88;5087248;28;20279;-73
2023/07/02 07:26:48;;;;;;;12.27;10.93;;;;;;;23.56;68.96;96384.75;5087627;28;20200;-73
2023/07/02 07:30:09;;;;;;;15.17;13.17;;;;;;;22.02;74.50;96340.41;5085757;28;20219;-80
2023/07/02 07:33:30;;;;;;;14.77;13.33;;;;;;;21.84;76.62;96328.13;5086140;28;20194;-78
2023/07/02 07:36:51;;;;;;;16.70;14.83;;;;;;;22.26;77.46;96345.81;5086319;28;20255;-76
2023/07/02 07:40:11;;;;;;;15.93;13.97;;;;;;;22.62;75.77;96355.22;5087412;28;20199;-78
2023/07/02 07:43:32;;;;;;;18.23;13.90;;;;;;;23.01;76.35;96358.94;5086068;28;20243;-75
2023/07/02 07:46:53;;;;;;;15.13;13.13;;;;;;;23.40;74.06;96349.41;5106217;28;20201;-81
2023/07/02 07:50:16;;;;;;;15.60;13.40;;;;;;;23.89;73.29;96346.69;5106559;28;20275;-79
2023/07/02 07:53:41;;;;;;;15.03;13.47;;;;;;;24.34;73.58;96357.50;5105430;28;20196;-77
2023/07/02 07:57:02;;;;;;;14.03;12.60;;;;;;;24.70;72.37;96355.19;5109484;28;20211;-80
2023/07/02 08:00:24;;;;;;;13.50;11.90;;;;;;;24.91;70.13;96360.75;5090971;28;20194;-79
2023/07/02 08:03:45;;;;;;;16.20;13.00;;;;;;;24.88;70.51;96358.44;5106863;28;20185;-81
2023/07/02 08:07:08;;;;;;;12.47;11.20;;;;;;;24.38;70.18;96352.72;5107476;28;20202;-79
2023/07/02 08:10:30;;;;;;;13.63;11.70;;;;;;;24.44;68.69;96354.66;5106760;28;20237;-77
2023/07/02 08:13:51;;;;;;;12.33;10.50;;;;;;;24.34;69.02;96357.50;5106113;28;20695;-75
2023/07/02 08:17:12;;;;;;;13.03;11.53;;;;;;;24.27;69.16;96355.72;5108019;28;20572;-80
2023/07/02 08:20:33;;;;;;;13.90;11.73;;;;;;;24.14;68.92;96351.78;5105159;28;20244;-72
2023/07/02 08:23:53;;;;;;;13.63;12.00;;;;;;;23.94;70.30;96349.66;5106710;28;20189;-77
2023/07/02 08:27:16;;;;;;;16.27;13.43;;;;;;;24.12;69.97;96355.59;5107060;28;20189;-73
2023/07/02 08:30:37;;;;;;;14.60;13.10;;;;;;;24.16;69.16;96356.91;5107420;28;20220;-80
2023/07/02 08:33:58;;;;;;;17.17;12.60;;;;;;;24.12;69.86;96356.44;5107593;28;20216;-79
2023/07/02 08:37:19;;;;;;;15.80;12.07;;;;;;;24.19;69.33;96367.97;5090108;28;20195;-82
2023/07/02 08:40:40;;;;;;;13.73;11.50;;;;;;;24.59;66.67;96364.34;5105732;28;20253;-74
2023/07/02 08:44:04;;;;;;;12.93;11.43;;;;;;;24.57;66.72;96361.03;5107929;28;20292;-74
2023/07/02 08:47:25;;;;;;;14.93;11.67;;;;;;;24.86;66.45;96361.25;5105337;28;20233;-72
2023/07/02 08:50:46;;;;;;;13.10;10.83;;;;;;;25.04;64.39;96351.22;5106559;28;20261;-72
2023/07/02 08:54:06;;;;;;;18.00;11.53;;;;;;;24.98;65.35;96348.44;5106570;28;20195;-75
2023/07/02 08:57:27;;;;;;;15.00;11.00;;;;;;;25.05;64.72;96360.00;5106436;28;20676;-74
2023/07/02 09:00:48;;;;;;;16.27;10.97;;;;;;;25.09;64.24;96363.09;5106643;28;20199;-79
2023/07/02 09:04:09;;;;;;;15.70;10.20;;;;;;;25.32;63.40;96369.25;5104850;28;20186;-75
2023/07/02 09:07:48;;;;;;;11.00;9.83;;;;;;;25.33;64.12;96371.69;5104331;28;20720;-79
2023/07/02 09:11:09;;;;;;;12.53;10.37;;;;;;;25.79;62.53;96386.63;5106047;28;20229;-78
2023/07/02 09:14:30;;;;;;;13.30;9.17;;;;;;;25.90;60.55;96381.88;5103455;28;20186;-74
2023/07/02 09:17:53;;;;;;;10.43;9.07;;;;;;;26.01;59.41;96341.63;5105841;28;20294;-78
2023/07/02 09:21:14;;;;;;;8.63;7.43;;;;;;;26.44;57.70;96364.72;5104319;28;20188;-80
2023/07/02 09:24:35;;;;;;;8.60;7.77;;;;;;;26.49;57.23;96364.97;5103033;28;20203;-80
2023/07/02 09:27:58;;;;;;;8.97;7.30;;;;;;;26.33;57.89;96357.22;5105162;28;20192;-78
2023/07/02 09:31:19;;;;;;;8.83;7.83;;;;;;;26.62;56.98;96370.47;5106533;28;20313;-71
2023/07/02 09:34:48;;;;;;;10.23;8.30;;;;;;;25.92;59.17;96367.41;5106888;28;20199;-72
2023/07/02 09:38:09;;;;;;;12.37;8.10;;;;;;;26.18;58.17;96353.72;5104948;28;20211;-79
2023/07/02 09:41:30;;;;;;;9.33;7.40;;;;;;;26.54;57.23;96359.94;5105571;28;20198;-75
2023/07/02 09:44:51;;;;;;;9.03;7.80;;;;;;;26.16;59.88;96351.25;5110401;28;20198;-78
2023/07/02 09:48:12;;;;;;;9.60;8.40;;;;;;;25.97;61.04;96350.94;5108965;28;20198;-77
2023/07/02 09:51:33;;;;;;;8.33;7.53;;;;;;;26.55;59.04;96345.66;5093643;28;20641;-78
2023/07/02 09:54:54;;;;;;;10.50;7.23;;;;;;;26.43;57.17;96347.13;5109767;28;20191;-82
2023/07/02 09:58:15;;;;;;;8.50;7.43;;;;;;;26.50;57.02;96348.84;5107516;28;20195;-75
2023/07/02 10:01:36;;;;;;;9.47;6.63;;;;;;;26.78;55.52;96351.69;5107307;28;20241;-77
2023/07/02 10:05:02;;;;;;;7.60;6.33;;;;;;;26.53;53.63;96345.00;5108433;28;20807;-80
2023/07/02 10:08:33;;;;;;;7.57;6.17;;;;;;;26.63;54.03;96342.88;5110032;28;20656;-81
2023/07/02 10:11:53;;;;;;;8.10;6.33;;;;;;;26.29;55.74;96342.66;5109528;28;20189;-77
2023/07/02 10:15:20;;;;;;;11.27;6.67;;;;;;;26.51;55.55;96344.38;5107149;28;20373;-77
2023/07/02 10:18:41;;;;;;;9.47;7.00;;;;;;;26.68;54.99;96329.88;5107052;28;20188;-76
2023/07/02 10:22:02;;;;;;;7.50;6.60;;;;;;;26.99;54.31;96330.47;5107663;28;20190;-76
2023/07/02 10:25:22;;;;;;;17.30;7.00;;;;;;;26.91;54.22;96327.94;5089729;28;20198;-78
2023/07/02 10:28:59;;;;;;;8.83;6.30;;;;;;;27.16;53.74;96317.75;5089515;28;20196;-75
2023/07/02 10:32:22;;;;;;;12.53;7.00;;;;;;;27.49;52.56;96320.72;5108642;28;20195;-80
2023/07/02 10:35:44;;;;;;;8.93;7.27;;;;;;;27.26;53.33;96321.75;5107707;28;20196;-73
2023/07/02 10:39:05;;;;;;;7.33;6.20;;;;;;;27.11;53.07;96310.34;5109185;28;20210;-73
2023/07/02 10:42:26;;;;;;;9.90;6.27;;;;;;;27.23;53.32;96314.13;5088960;28;20195;-75
2023/07/02 10:45:52;;;;;;;10.03;6.93;;;;;;;27.22;52.70;96315.13;5107505;28;20194;-77
2023/07/02 10:49:13;;;;;;;8.83;6.30;;;;;;;26.78;53.95;96317.13;5114123;28;20195;-79
2023/07/02 10:52:40;;;;;;;7.67;6.40;;;;;;;27.04;53.31;96314.75;5094564;28;20188;-79
2023/07/02 10:56:01;;;;;;;10.23;6.27;;;;;;;26.69;53.72;96310.25;5105486;28;20935;-76
2023/07/02 10:59:22;;;;;;;9.73;7.03;;;;;;;26.83;53.21;96320.03;5108289;28;20557;-77
2023/07/02 11:02:42;;;;;;;8.57;6.50;;;;;;;26.94;52.59;96313.41;5107659;28;20674;-82
2023/07/02 11:06:04;;;;;;;10.10;6.27;;;;;;;26.49;54.25;96314.53;5108697;28;20667;-80
2023/07/02 11:09:25;;;;;;;8.80;6.47;;;;;;;26.23;54.32;96293.78;5098041;28;20584;-76
2023/07/02 11:12:48;;;;;;;10.93;5.93;;;;;;;26.41;55.20;96307.50;5085382;28;20185;-75
2023/07/02 11:16:09;;;;;;;7.30;5.83;;;;;;;26.38;55.01;96309.66;5084281;28;20185;-73
2023/07/02 11:19:30;;;;;;;8.70;6.17;;;;;;;26.79;54.51;96292.19;5097737;28;20215;-74
2023/07/02 11:22:50;;;;;;;9.33;6.40;;;;;;;27.01;52.60;96293.88;5100444;28;20667;-74
2023/07/02 11:26:14;;;;;;;7.70;6.30;;;;;;;27.12;53.22;96296.00;5102573;28;20307;-74
2023/07/02 11:29:35;;;;;;;7.57;6.03;;;;;;;27.73;51.65;96314.97;5071124;28;20193;-73
2023/07/02 11:33:10;;;;;;;7.67;6.10;;;;;;;27.34;51.01;96305.69;5106496;28;20196;-73
2023/07/02 11:36:31;;;;;;;6.90;6.20;;;;;;;27.07;51.89;96302.91;5107020;28;20200;-74
2023/07/02 11:39:52;;;;;;;7.33;6.50;;;;;;;27.03;51.47;96299.84;5089755;28;20191;-76
2023/07/02 11:43:13;;;;;;;7.43;5.50;;;;;;;27.34;51.05;96300.34;5091265;28;20196;-76
2023/07/02 11:46:33;;;;;;;6.50;5.80;;;;;;;27.86;49.58;96304.44;5101943;28;20964;-77
2023/07/02 11:49:54;;;;;;;7.00;6.00;;;;;;;28.13;49.54;96306.28;5084591;28;20218;-83
2023/07/02 11:53:15;;;;;;;8.10;5.67;;;;;;;28.36;52.19;96305.97;5086172;28;20253;-84
2023/07/02 11:56:36;;;;;;;9.07;6.27;;;;;;;27.90;53.06;96319.00;5088972;28;20193;-82
2023/07/02 11:59:59;;;;;;;6.80;5.03;;;;;;;27.42;51.62;96290.59;5088205;28;20201;-74
2023/07/02 12:03:22;;;;;;;6.17;5.37;;;;;;;27.62;51.40;96297.69;5088330;28;20614;-72
2023/07/02 12:06:43;;;;;;;5.73;4.60;;;;;;;27.43;53.26;96295.69;5088480;28;20201;-78
2023/07/02 12:10:04;;;;;;;5.83;4.63;;;;;;;27.55;53.41;96291.53;5085522;28;20240;-74
2023/07/02 12:13:24;;;;;;;5.80;5.00;;;;;;;27.47;53.71;96304.13;5088304;28;20207;-74
2023/07/02 12:16:45;;;;;;;7.67;4.90;;;;;;;27.80;51.84;96267.94;5090011;28;20202;-74
2023/07/02 12:20:06;;;;;;;6.17;5.57;;;;;;;28.11;52.23;96302.94;5085257;28;20192;-75
2023/07/02 12:23:26;;;;;;;6.10;4.60;;;;;;;28.04;51.89;96315.44;5102241;28;20210;-77
2023/07/02 12:26:48;;;;;;;5.80;4.40;;;;;;;28.08;51.28;96309.53;5106744;28;20671;-74
2023/07/02 12:30:08;;;;;;;5.27;4.33;;;;;;;28.09;51.42;96302.31;5102819;28;20230;-75
2023/07/02 12:33:29;;;;;;;6.53;4.83;;;;;;;28.07;51.07;96302.53;5105220;28;20192;-77
2023/07/02 12:36:50;;;;;;;5.03;3.80;;;;;;;27.79;51.27;96304.38;5086271;28;20196;-79
2023/07/02 12:40:10;;;;;;;7.83;5.00;;;;;;;26.57;54.96;96307.28;5084266;28;20272;-74
2023/07/02 12:43:31;;;;;;;8.10;5.30;;;;;;;26.22;57.65;96301.91;5096839;28;20212;-82
2023/07/02 12:46:52;;;;;;;8.57;6.10;;;;;;;26.24;58.81;96315.81;5086028;28;20189;-76
2023/07/02 12:50:13;;;;;;;10.20;5.70;;;;;;;25.87;60.05;96303.44;5085748;28;20226;-73
2023/07/02 12:53:34;;;;;;;7.73;6.47;;;;;;;25.55;61.62;96306.44;5086905;28;20287;-77
2023/07/02 12:56:55;;;;;;;7.60;6.17;;;;;;;25.57;60.94;96297.31;5089702;28;20765;-75
2023/07/02 13:00:16;;;;;;;8.70;6.27;;;;;;;25.72;60.07;96295.47;5103706;28;20210;-75
2023/07/02 13:03:37;;;;;;;7.80;6.30;;;;;;;25.67;60.24;96287.25;5105794;28;20193;-73
2023/07/02 13:06:59;;;;;;;8.50;6.40;;;;;;;25.98;59.44;96294.22;5105912;28;20199;-74
2023/07/02 13:10:19;;;;;;;9.03;6.40;;;;;;;26.34;58.27;96301.25;5104383;28;20722;-80
2023/07/02 13:13:40;;;;;;;9.37;6.30;;;;;;;26.39;59.56;96290.09;5104115;28;20227;-75
2023/07/02 13:17:04;;;;;;;7.93;6.20;;;;;;;26.21;60.33;96279.88;5102961;28;20195;-73
2023/07/02 13:20:25;;;;;;;8.30;6.00;;;;;;;26.39;60.73;96290.09;5103312;28;21002;-77
2023/07/02 13:23:46;;;;;;;7.87;6.17;;;;;;;26.70;60.85;96295.97;5105958;28;20200;-74
2023/07/02 13:27:07;;;;;;;10.50;6.30;;;;;;;26.99;61.45;96285.28;5105259;28;20194;-74
2023/07/02 13:30:30;;;;;;;10.30;6.13;;;;;;;26.92;61.55;96283.53;5105153;28;20310;-78
2023/07/02 13:33:52;;;;;;;8.70;6.30;;;;;;;26.82;61.24;96291.84;5103284;28;20583;-78
2023/07/02 13:37:14;;;;;;;9.00;6.00;;;;;;;26.72;61.00;96291.31;5071892;28;20184;-74
2023/07/02 13:40:34;;;;;;;10.40;6.73;;;;;;;26.92;60.99;96284.38;5104304;28;20176;-75
2023/07/02 13:43:55;;;;;;;7.40;6.20;;;;;;;26.49;61.53;96264.06;5103437;28;20208;-75
2023/07/02 13:47:16;;;;;;;9.47;6.90;;;;;;;26.30;62.76;96289.38;5102495;28;20204;-73
2023/07/02 13:50:36;;;;;;;12.07;7.13;;;;;;;26.24;63.19;96283.97;5105504;28;20801;-74
2023/07/02 13:53:58;;;;;;;8.50;7.00;;;;;;;26.48;61.95;96296.94;5103538;28;20204;-75
2023/07/02 13:57:18;;;;;;;10.30;7.13;;;;;;;26.73;61.76;96297.47;5103031;28;20188;-75
2023/07/02 14:00:39;;;;;;;12.30;8.27;;;;;;;26.90;60.47;96291.72;5081542;28;20285;-77
2023/07/02 14:04:00;;;;;;;10.00;6.60;;;;;;;26.63;60.57;96289.75;5092906;28;20211;-75
2023/07/02 14:07:21;;;;;;;8.10;6.77;;;;;;;26.53;59.92;96297.19;5098691;28;20196;-74
2023/07/02 14:10:41;;;;;;;8.10;6.53;;;;;;;26.40;60.76;96262.50;5084108;28;20224;-77
2023/07/02 14:14:03;;;;;;;9.80;7.00;;;;;;;26.60;60.37;96290.13;5085422;28;20188;-74
2023/07/02 14:17:24;;;;;;;10.63;7.07;;;;;;;26.49;60.30;96272.84;5085481;28;20318;-76
2023/07/02 14:20:44;;;;;;;9.57;8.00;;;;;;;26.62;60.87;96280.16;5105334;28;20632;-76
2023/07/02 14:24:06;;;;;;;8.63;7.57;;;;;;;26.43;62.02;96280.72;5106512;28;20195;-75
2023/07/02 14:27:27;;;;;;;9.97;7.17;;;;;;;26.63;61.56;96279.13;5102386;28;20211;-77
2023/07/02 14:30:53;;;;;;;9.43;7.20;;;;;;;26.63;61.28;96259.72;5091089;28;20257;-78
2023/07/02 14:34:14;;;;;;;10.57;7.03;;;;;;;27.11;60.17;96272.28;5100217;28;20196;-75
2023/07/02 14:37:35;;;;;;;10.77;7.47;;;;;;;27.18;60.39;96279.28;5099904;28;20199;-75
2023/07/02 14:40:56;;;;;;;10.20;7.10;;;;;;;26.91;60.96;96273.94;5101936;28;20581;-75
2023/07/02 14:44:17;;;;;;;10.33;7.40;;;;;;;26.91;60.98;96274.78;5099258;28;20196;-75
2023/07/02 14:46:58;;;;;;;9.07;6.97;;;;;;;26.99;60.22;96284.44;5087480;28;20592;-74
2023/07/02 14:49:25;;;;;;;8.70;7.00;;;;;;;26.90;60.00;96281.09;5071497;28;20224;-75
2023/07/02 14:52:33;;;;;;;9.00;7.03;;;;;;;26.75;60.55;96276.84;5087406;28;20214;-75
2023/07/02 14:55:54;;;;;;;8.60;6.80;;;;;;;26.61;61.33;96281.16;5089074;28;20199;-75
2023/07/02 14:58:36;;;;;;;9.27;6.93;;;;;;;26.45;60.76;96246.84;5090919;28;20204;-75
2023/07/02 15:01:25;;;;;;;9.03;6.40;;;;;;;26.82;60.23;96289.19;5093805;28;20207;-74
2023/07/02 15:04:46;;;;;;;9.57;7.33;;;;;;;26.77;60.55;96286.25;5094045;28;20203;-76
2023/07/02 15:08:07;;;;;;;9.40;6.57;;;;;;;26.74;61.19;96285.81;5105362;28;20203;-74
2023/07/02 15:11:28;;;;;;;10.97;7.57;;;;;;;26.51;61.34;96264.69;5092652;28;20235;-76
2023/07/02 15:14:49;;;;;;;8.50;6.53;;;;;;;26.23;61.81;96271.72;5092109;28;20196;-75
2023/07/02 15:18:11;;;;;;;10.43;7.40;;;;;;;26.24;61.86;96271.53;5092478;28;20200;-74
2023/07/02 15:21:32;;;;;;;10.97;7.20;;;;;;;26.31;61.74;96275.09;5101257;28;20282;-78
2023/07/02 15:24:52;;;;;;;9.07;7.27;;;;;;;26.38;61.00;96270.66;5096066;28;20299;-77
2023/07/02 15:28:15;;;;;;;10.00;7.30;;;;;;;26.55;60.35;96264.13;5106099;28;20202;-73
2023/07/02 15:31:40;;;;;;;11.13;6.83;;;;;;;26.31;61.51;96274.25;5088228;28;20230;-75
2023/07/02 15:35:01;;;;;;;12.57;7.13;;;;;;;26.26;61.74;96288.09;5087688;28;20291;-75
2023/07/02 15:38:22;;;;;;;7.90;6.13;;;;;;;26.36;61.56;96303.72;5088222;28;20200;-75